Latest Weather Observations for Gingin Airport

IDW60801

Issued at 2:34 am WST Sunday 2 October 2016 (issued every 30 minutes, with the page automatically refreshed every 10 minutes)

About weather observations | Map of weather stations | Latest weather observations for WA | Other Formats
Station Details ID: 009178 Name: GINGIN AERO Lat: -31.46 Lon: 115.86 Height: 73.0 m
Data from the previous 72 hours. | See also: Recent months at Gingin Airport
Date/Time
WST
Temp
°C
App
Temp
°C
Dew
Point
°C
Rel
Hum
%
Delta-T
°C
Wind Press
QNH
hPa
Press
MSL
hPa
Rain since
9am
mm
Dir  Spd
km/h
Gust
km/h
Spd
kts
Gust
kts
02/02:30am 9.9 5.8 6.4 79 1.6 SW 17 20 9 11 1013.3 1013.2 6.2
02/02:00am 9.9 6.5 6.1 77 1.8 SW 13 26 7 14 1013.4 1013.3 6.2
02/01:30am 10.1 5.1 4.5 68 2.5 SW 20 28 11 15 1013.0 1012.9 6.0
02/01:00am 10.1 4.9 5.3 72 2.2 WSW 22 32 12 17 1013.1 1013.0 6.0
02/12:38am 10.1 6.4 6.1 76 1.9 WSW 15 32 8 17 1012.9 1012.8 6.0
02/12:30am 9.0 7.0 6.3 83 1.2 SW 6 9 3 5 1012.8 1012.7 6.0
02/12:00am 9.1 6.5 6.2 82 1.3 WSW 9 13 5 7 1012.7 1012.6 5.8
 
Date/Time
WST
Temp
°C
App
Temp
°C
Dew
Point
°C
Rel
Hum
%
Delta-T
°C
Wind Press
QNH
hPa
Press
MSL
hPa
Rain since
9am
mm
Dir  Spd
km/h
Gust
km/h
Spd
kts
Gust
kts
01/11:30pm 9.5 5.8 6.4 81 1.4 WSW 15 24 8 13 1012.5 1012.4 5.8
01/11:00pm 9.5 5.2 5.1 74 2.0 WSW 17 22 9 12 1012.9 1012.8 5.6
01/10:30pm 10.2 5.2 4.8 69 2.4 SW 20 35 11 19 1012.4 1012.3 5.4
01/10:00pm 10.4 3.2 4.8 68 2.5 SW 32 46 17 25 1012.3 1012.2 5.4
01/09:55pm 10.5 4.0 4.9 68 2.5 SW 28 46 15 25 1012.3 1012.2 5.4
01/09:30pm 9.9 4.7 5.3 73 2.1 WSW 22 28 12 15 1012.0 1011.9 5.4
01/09:05pm 9.6 2.9 5.6 76 1.8 SW 30 48 16 26 1011.5 1011.4 5.4
01/09:00pm 9.8 2.2 5.8 76 1.8 WSW 35 48 19 26 1011.5 1011.4 5.4
01/08:51pm 9.7 3.3 5.3 74 2.0 SW 28 46 15 25 1011.4 1011.3 5.4
01/08:30pm 9.0 4.1 5.0 76 1.8 WSW 20 30 11 16 1011.2 1011.1 4.6
01/08:00pm 9.3 -0.6 6.6 83 1.3 SW 48 70 26 38 1011.3 1011.2 4.4
01/07:59pm 9.5 0.1 7.1 85 1.1 SW 46 70 25 38 1011.3 1011.2 4.4
01/07:54pm 10.6 2.7 6.2 74 2.1 SW 37 70 20 38 1011.0 1010.9 4.0
01/07:37pm 11.7 5.3 5.3 65 3.0 SW 28 46 15 25 1010.3 1010.2 4.0
01/07:30pm 11.3 5.1 6.2 71 2.4 WSW 28 35 15 19 1010.2 1010.1 4.0
01/07:00pm 10.1 3.8 7.3 83 1.3 SW 30 44 16 24 1010.1 1010.0 4.0
01/06:45pm 10.4 4.4 6.9 79 1.7 SW 28 48 15 26 1009.9 1009.8 3.8
01/06:30pm 10.7 5.4 6.8 77 1.8 WSW 24 32 13 17 1009.2 1009.1 3.8
01/06:05pm 10.7 1.7 6.6 76 1.9 SW 43 61 23 33 1009.5 1009.4 3.8
01/06:00pm 10.9 1.7 6.3 73 2.2 WSW 44 61 24 33 1009.4 1009.3 3.8
01/05:33pm 12.8 4.1 4.3 56 3.9 WSW 39 61 21 33 1008.7 1008.6 3.8
01/05:30pm 12.8 4.6 4.5 57 3.8 SW 37 48 20 26 1008.7 1008.6 3.8
01/05:00pm 12.7 2.7 4.4 57 3.8 SW 46 67 25 36 1008.5 1008.4 3.8
01/04:30pm 13.5 4.4 3.8 52 4.4 WSW 41 76 22 41 1008.1 1008.0 3.8
01/04:00pm 12.5 4.5 7.4 71 2.5 WSW 39 63 21 34 1008.4 1008.3 3.6
01/03:58pm 12.8 5.2 5.7 62 3.3 WSW 35 59 19 32 1008.2 1008.1 3.6
01/03:45pm 12.5 6.8 8.2 75 2.1 WSW 28 37 15 20 1008.2 1008.1 3.6
01/03:30pm 10.9 2.5 7.2 78 1.8 SW 41 59 22 32 1008.3 1008.2 3.6
01/03:06pm 13.6 4.2 5.5 58 3.8 WSW 44 70 24 38 1007.4 1007.3 3.0
01/03:00pm 14.3 5.4 4.9 53 4.4 WSW 41 57 22 31 1007.4 1007.3 3.0
01/02:33pm 14.0 4.8 5.4 56 4.1 WSW 43 63 23 34 1007.2 1007.0 3.0
01/02:30pm 14.2 5.8 5.8 57 4.0 SW 39 52 21 28 1007.2 1007.0 3.0
01/02:07pm 12.9 6.1 7.6 70 2.6 WSW 33 56 18 30 1007.2 1007.0 3.0
01/02:00pm 12.3 4.4 8.0 75 2.1 WSW 39 52 21 28 1007.1 1006.9 3.0
01/01:30pm 13.7 6.2 8.1 69 2.8 WSW 37 63 20 34 1006.8 1006.6 2.6
01/01:00pm 12.5 3.8 10.0 85 1.3 SW 46 69 25 37 1007.1 1006.9 2.6
01/12:39pm 13.9 6.6 10.1 78 2.0 WSW 39 57 21 31 1006.8 1006.6 1.2
01/12:30pm 13.2 5.6 10.6 84 1.4 SW 41 54 22 29 1006.8 1006.6 1.2
01/12:01pm 15.7 7.1 6.4 54 4.5 WSW 41 59 22 32 1006.1 1005.9 0.4
01/12:00pm 15.9 7.1 7.4 57 4.3 WSW 43 59 23 32 1006.1 1005.9 0.4
01/11:30am 13.9 5.1 9.7 76 2.2 WSW 46 72 25 39 1006.5 1006.3 0.4
01/11:00am 16.0 7.9 8.5 61 3.8 WSW 41 59 22 32 1006.2 1006.0 0.4
01/10:30am 16.0 7.1 7.0 55 4.5 WSW 43 63 23 34 1006.1 1005.9 0.4
01/10:02am 16.2 6.4 7.2 55 4.5 WSW 48 72 26 39 1006.1 1005.9 0.4
01/10:00am 16.3 6.7 7.8 57 4.3 WSW 48 65 26 35 1006.0 1005.8 0.4
01/09:30am 14.8 6.5 9.4 70 2.8 WSW 43 65 23 35 1006.0 1005.8 0.4
01/09:00am 13.8 5.0 11.0 83 1.5 W 48 72 26 39 1005.6 1005.4 1.4
01/08:44am 17.0 9.4 9.2 60 4.1 W 39 63 21 34 1005.0 1004.8 0.8
01/08:30am 16.6 9.7 8.8 60 4.0 W 35 50 19 27 1004.9 1004.7 0.8
01/08:00am 16.6 9.3 8.8 60 4.0 W 37 57 20 31 1004.9 1004.7 0.8
01/07:30am 15.1 9.3 10.9 76 2.2 W 32 50 17 27 1004.6 1004.5 0.8
01/07:00am 15.6 10.4 10.4 71 2.8 WNW 28 46 15 25 1004.3 1004.2 0.8
01/06:41am 14.9 9.7 10.3 74 2.4 W 28 46 15 25 1004.1 1004.0 0.8
01/06:30am 14.2 10.0 11.0 81 1.7 W 24 39 13 21 1004.3 1004.2 0.8
01/06:04am 14.8 9.2 10.2 74 2.4 W 30 48 16 26 1004.1 1004.0 0.6
01/06:00am 14.6 8.7 10.4 76 2.2 W 32 48 17 26 1004.1 1004.0 0.6
01/05:38am 14.8 9.5 10.0 73 2.5 WNW 28 48 15 26 1004.1 1004.0 0.6
01/05:30am 14.5 10.1 10.5 77 2.1 WNW 24 37 13 20 1004.0 1003.9 0.6
01/05:00am 13.7 10.2 10.3 80 1.8 WNW 19 26 10 14 1003.8 1003.7 0.6
01/04:30am 13.6 10.0 10.0 79 1.9 WNW 19 28 10 15 1004.0 1003.9 0.6
01/04:00am 11.7 9.9 10.8 94 0.5 NNW 11 17 6 9 1004.0 1003.9 0.6
01/03:30am 11.4 10.0 10.8 96 0.3 NNW 9 13 5 7 1004.3 1004.2 0.6
01/03:00am 11.3 9.8 10.7 96 0.3 NNW 9 13 5 7 1004.5 1004.4 0.6
01/02:30am 11.1 9.6 10.5 96 0.3 NNW 9 13 5 7 1004.8 1004.7 0.6
01/02:00am 11.2 9.3 10.4 95 0.4 NNW 11 15 6 8 1005.1 1005.0 0.4
01/01:30am 11.4 9.9 10.6 95 0.4 NNW 9 13 5 7 1005.4 1005.3 0.4
01/01:00am 12.0 10.7 11.2 95 0.4 NNW 9 15 5 8 1005.5 1005.4 0.4
01/12:30am 12.2 10.1 11.3 94 0.5 NNW 13 17 7 9 1005.7 1005.6 0.4
01/12:00am 12.0 10.3 11.1 94 0.5 NNW 11 15 6 8 1006.1 1006.0 0.4
 
Date/Time
WST
Temp
°C
App
Temp
°C
Dew
Point
°C
Rel
Hum
%
Delta-T
°C
Wind Press
QNH
hPa
Press
MSL
hPa
Rain since
9am
mm
Dir  Spd
km/h
Gust
km/h
Spd
kts
Gust
kts
30/11:30pm 11.5 10.0 10.6 94 0.5 NNW 9 13 5 7 1006.4 1006.3 0.4
30/11:00pm 11.8 10.4 10.9 94 0.5 NNW 9 13 5 7 1006.7 1006.6 0.4
30/10:30pm 12.4 11.1 11.3 93 0.6 NNW 9 13 5 7 1007.1 1007.0 0.4
30/10:00pm 12.4 11.4 11.1 92 0.7 NNW 7 9 4 5 1007.5 1007.4 0.4
30/09:30pm 13.0 11.4 11.4 90 0.8 WNW 11 17 6 9 1007.9 1007.8 0.4
30/09:00pm 13.5 11.2 11.7 89 1.0 W 15 20 8 11 1008.2 1008.1 0.4
30/08:30pm 13.9 11.3 10.7 81 1.7 WNW 15 26 8 14 1008.3 1008.2 0.4
30/08:00pm 14.3 11.4 11.1 81 1.7 W 17 30 9 16 1008.0 1007.9 0.4
30/07:30pm 14.2 12.3 11.7 85 1.3 W 13 20 7 11 1008.0 1007.9 0.4
30/07:00pm 14.2 12.7 10.6 79 1.9 WNW 9 13 5 7 1008.0 1007.9 0.4
30/06:30pm 14.1 12.3 10.7 80 1.8 WNW 11 17 6 9 1007.9 1007.8 0.4
30/06:00pm 14.1 9.4 10.7 80 1.8 WSW 26 39 14 21 1007.8 1007.7 0.4
30/05:30pm 16.4 11.6 10.3 67 3.2 WSW 26 39 14 21 1007.6 1007.5 0.4
30/05:00pm 16.8 12.8 10.6 67 3.3 WSW 22 32 12 17 1007.5 1007.4 0.4
30/04:30pm 15.8 10.2 12.0 78 2.1 WSW 33 48 18 26 1007.6 1007.5 0.4
30/04:00pm 16.9 10.7 10.1 64 3.6 W 33 43 18 23 1007.3 1007.2 0.4
30/03:48pm 17.6 11.4 9.2 58 4.4 W 32 54 17 29 1007.2 1007.1 0.4
30/03:30pm 17.9 13.0 10.0 60 4.2 W 26 41 14 22 1007.4 1007.3 0.4
30/03:00pm 18.0 11.6 9.4 57 4.5 W 33 48 18 26 1007.6 1007.5 0.4
30/02:30pm 18.1 12.4 11.2 64 3.8 W 32 46 17 25 1007.6 1007.5 0.4
30/02:12pm 17.0 11.7 9.9 63 3.7 W 28 54 15 29 1007.6 1007.5 0.4
30/02:00pm 17.2 12.4 11.5 69 3.1 W 28 39 15 21 1007.6 1007.5 0.4
30/01:30pm 16.6 12.0 12.2 75 2.4 W 28 41 15 22 1007.8 1007.7 0.2
30/01:00pm 16.2 13.9 14.6 90 0.9 W 20 30 11 16 1008.2 1008.1 0.2
30/12:30pm 16.4 11.0 12.2 76 2.3 WNW 32 43 17 23 1008.4 1008.3 0.0
30/12:04pm 17.0 11.7 11.1 68 3.2 WNW 30 50 16 27 1008.6 1008.5 0.0
30/12:00pm 17.8 11.8 10.2 61 4.1 WNW 32 44 17 24 1008.4 1008.3 0.0
30/11:30am 18.2 12.7 9.3 56 4.7 WNW 28 41 15 22 1008.6 1008.5 0.0
30/11:00am 18.3 13.3 9.4 56 4.7 WNW 26 41 14 22 1009.3 1009.3 0.0
30/10:30am 17.7 12.4 8.6 55 4.7 WNW 26 39 14 21 1009.4 1009.4 0.0
30/10:00am 17.2 12.2 8.1 55 4.7 WNW 24 35 13 19 1009.4 1009.4 0.0
30/09:30am 17.7 13.2 8.6 55 4.7 WNW 22 33 12 18 1009.5 1009.5 0.0
30/09:00am 15.8 11.5 7.8 59 4.0 WNW 20 33 11 18 1009.5 1009.5 0.0
30/08:30am 15.6 12.2 7.6 59 4.0 NW 15 20 8 11 1009.7 1009.7 0.0
30/08:00am 13.2 10.1 7.4 68 2.8 NNW 13 17 7 9 1009.8 1009.8 0.0
30/07:30am 11.6 9.4 7.9 78 1.8 NNW 9 13 5 7 1009.8 1009.8 0.0
30/07:00am 9.2 6.9 7.3 88 0.9 NNW 9 11 5 6 1009.8 1009.8 0.0
30/06:30am 7.8 4.9 6.4 91 0.6 N 11 15 6 8 1009.8 1009.8 0.0
30/06:00am 7.2 4.2 6.0 92 0.5 NNW 11 15 6 8 1009.7 1009.7 0.0
30/05:30am 6.3 3.9 5.3 93 0.4 N 7 9 4 5 1009.9 1009.9 0.0
30/05:00am 5.8 2.9 4.9 94 0.4 N 9 13 5 7 1010.1 1010.1 0.0
30/04:30am 5.3 2.0 4.3 93 0.4 N 11 13 6 7 1010.4 1010.4 0.0
30/04:00am 5.0 1.6 4.1 94 0.4 N 11 13 6 7 1010.5 1010.5 0.0
30/03:30am 5.2 2.7 4.5 95 0.3 NNW 7 11 4 6 1010.9 1010.9 0.0
30/03:00am 4.3 1.6 3.6 95 0.3 N 7 9 4 5 1010.7 1010.7 0.0
30/02:30am 4.1 1.3 3.2 94 0.4 N 7 9 4 5 1010.9 1010.9 0.0
30/02:00am 4.3 1.5 3.4 94 0.4 N 7 9 4 5 1011.4 1011.4 0.0
30/01:30am 3.7 0.4 2.7 93 0.4 N 9 9 5 5 1011.6 1011.6 0.0
30/01:00am 3.4 0.6 2.2 92 0.5 E 6 9 3 5 1012.0 1012.0 0.0
30/12:30am 3.6 2.0 2.3 91 0.5 CALM 0 0 0 0 1012.2 1012.2 0.0
30/12:00am 4.2 2.7 2.9 91 0.5 CALM 0 0 0 0 1012.6 1012.6 0.0
 
Date/Time
WST
Temp
°C
App
Temp
°C
Dew
Point
°C
Rel
Hum
%
Delta-T
°C
Wind Press
QNH
hPa
Press
MSL
hPa
Rain since
9am
mm
Dir  Spd
km/h
Gust
km/h
Spd
kts
Gust
kts
29/11:30pm 4.9 3.5 3.6 91 0.5 CALM 0 0 0 0 1012.9 1012.9 0.0
29/11:00pm 5.1 3.7 3.4 89 0.7 CALM 0 0 0 0 1012.9 1012.9 0.0
29/10:30pm 5.7 4.4 4.0 89 0.7 CALM 0 0 0 0 1013.6 1013.6 0.0
29/10:00pm 5.6 3.5 3.8 88 0.8 E 4 7 2 4 1013.9 1013.9 0.0
29/09:30pm 6.1 3.7 4.1 87 0.9 E 6 7 3 4 1014.6 1014.6 0.0
29/09:00pm 6.7 5.5 4.4 85 1.0 CALM 0 0 0 0 1014.9 1014.9 0.0
29/08:30pm 7.6 6.5 4.9 83 1.2 CALM 0 0 0 0 1014.9 1014.9 0.0
29/08:00pm 8.5 7.4 4.9 78 1.6 CALM 0 0 0 0 1015.1 1015.1 0.0
29/07:30pm 11.2 8.9 5.5 68 2.6 SSW 7 9 4 5 1015.2 1015.2 0.0
29/07:00pm 12.2 9.2 5.8 65 3.0 SSW 11 13 6 7 1015.0 1015.0 0.0
29/06:30pm 13.1 9.7 5.8 61 3.5 SW 13 19 7 10 1014.7 1014.7 0.0
29/06:00pm 14.3 9.5 5.7 56 4.1 SW 20 30 11 16 1014.5 1014.5 0.0
29/05:30pm 15.7 10.9 5.6 51 4.8 SW 20 26 11 14 1014.5 1014.5 0.0
29/05:00pm 16.9 11.8 5.8 48 5.4 SW 22 30 12 16 1014.3 1014.3 0.0
29/04:30pm 18.5 14.9 5.0 41 6.5 SSW 13 17 7 9 1014.4 1014.4 0.0
29/04:00pm 19.5 17.2 5.6 40 6.9 NNW 7 11 4 6 1014.5 1014.5 0.0
29/03:30pm 19.0 16.2 3.2 35 7.4 NNE 7 13 4 7 1014.9 1014.9 0.0
29/03:00pm 19.0 14.7 3.2 35 7.4 ENE 15 22 8 12 1015.5 1015.5 0.0
29/02:30pm 19.1 16.1 4.1 37 7.2 S 9 15 5 8 1016.1 1016.1 0.0
29/02:00pm 18.6 15.0 2.9 35 7.3 N 11 19 6 10 1016.8 1016.8 0.0
29/01:30pm 18.2 14.8 4.0 39 6.7 NNW 11 17 6 9 1017.6 1017.5 0.0
29/01:00pm 17.9 14.2 4.5 41 6.4 NNE 13 19 7 10 1018.0 1017.9 0.0
29/12:30pm 17.1 14.5 4.1 42 6.1 NW 7 13 4 7 1018.7 1018.6 0.0
29/12:00pm 16.4 13.3 3.5 42 5.9 NE 9 22 5 12 1019.0 1018.9 0.0
29/11:30am 15.9 12.8 3.4 43 5.7 NE 9 15 5 8 1019.9 1019.8 0.0
29/11:00am 14.8 10.1 3.0 45 5.3 ENE 17 24 9 13 1020.7 1020.7 0.0
29/10:30am 15.0 11.6 3.8 47 5.1 NNE 11 19 6 10 1021.5 1021.5 0.0
29/10:00am 14.2 10.7 3.4 48 4.9 ENE 11 22 6 12 1021.8 1021.8 0.0
29/09:30am 13.4 8.2 2.6 48 4.8 NE 19 26 10 14 1021.7 1021.7 0.0
29/09:00am 12.2 6.8 2.4 51 4.2 NE 20 28 11 15 1021.7 1021.7 0.0
29/08:30am 11.5 4.6 2.3 53 4.0 ENE 28 33 15 18 1021.8 1021.8 0.0
29/08:00am 10.1 4.9 2.7 60 3.2 ENE 19 26 10 14 1021.9 1021.9 0.0
29/07:30am 8.7 3.4 2.9 67 2.5 ENE 20 26 11 14 1021.9 1021.9 0.0
29/07:00am 7.5 2.1 2.6 71 2.0 ENE 20 26 11 14 1022.0 1022.0 0.0
29/06:30am 6.4 1.2 2.5 76 1.6 ENE 19 26 10 14 1021.7 1021.7 0.0
29/06:00am 5.9 0.7 2.4 78 1.4 ENE 19 24 10 13 1021.9 1021.9 0.0
29/05:30am 5.6 0.4 2.4 80 1.3 ENE 19 28 10 15 1021.9 1021.9 0.0
29/05:00am 5.8 0.7 2.8 81 1.2 ENE 19 24 10 13 1021.9 1021.9 0.0
29/04:30am 5.4 1.4 2.9 84 1.0 E 13 20 7 11 1021.7 1021.7 0.0
29/04:00am 4.9 1.3 3.1 88 0.7 E 11 15 6 8 1021.5 1021.5 0.0
29/03:30am 3.4 0.1 2.4 93 0.4 E 9 17 5 9 1021.5 1021.5 0.0
29/03:00am 2.6 0.1 1.6 93 0.4 E 4 9 2 5 1021.7 1021.7 0.0

Other Formats:

Comma delimited format used in spreadsheet applications
http://www.bom.gov.au/fwo/IDW60801/IDW60801.95612.axf

JavaScript Object Notation format (JSON) in row-major order
http://www.bom.gov.au/fwo/IDW60801/IDW60801.95612.json